createdAt,value
2022-08-20T00:01:35.969Z,22.83
2022-08-20T00:04:02.761Z,22.91
2022-08-20T00:06:29.447Z,22.96
2022-08-20T00:08:56.138Z,23.01
2022-08-20T00:11:25.224Z,23.04
2022-08-20T00:13:55.535Z,23.01
2022-08-20T00:16:23.980Z,23.06
2022-08-20T00:18:51.471Z,23.01
2022-08-20T00:21:20.006Z,22.78
2022-08-20T00:23:49.443Z,22.88
2022-08-20T00:26:17.021Z,22.90
2022-08-20T00:28:43.737Z,22.91
2022-08-20T00:31:14.471Z,22.96
2022-08-20T00:33:41.237Z,23.02
2022-08-20T00:36:10.370Z,23.07
2022-08-20T00:38:38.304Z,22.99
2022-08-20T00:41:05.781Z,22.99
2022-08-20T00:43:57.274Z,22.94
2022-08-20T00:46:31.107Z,22.96
2022-08-20T00:48:59.723Z,22.95
2022-08-20T00:51:34.360Z,22.96
2022-08-20T00:54:11.018Z,22.94
2022-08-20T00:56:38.854Z,22.95
2022-08-20T00:59:11.821Z,22.60
2022-08-20T01:01:55.889Z,22.79
2022-08-20T01:04:25.609Z,22.82
2022-08-20T01:06:52.367Z,22.91
2022-08-20T01:09:33.306Z,22.89
2022-08-20T01:12:07.336Z,22.94
2022-08-20T01:14:34.078Z,22.92
2022-08-20T01:17:04.450Z,22.93
2022-08-20T01:19:35.616Z,22.76
2022-08-20T01:22:24.065Z,22.83
2022-08-20T01:24:52.630Z,22.89
2022-08-20T01:27:19.607Z,22.82
2022-08-20T01:29:46.901Z,22.79
2022-08-20T01:32:13.628Z,22.60
2022-08-20T01:34:40.372Z,22.76
2022-08-20T01:37:07.281Z,22.78
2022-08-20T01:39:36.091Z,22.79
2022-08-20T01:42:07.037Z,22.86
2022-08-20T01:44:36.524Z,22.80
2022-08-20T01:47:15.923Z,22.91
2022-08-20T01:49:46.344Z,22.92
2022-08-20T01:52:25.959Z,22.90
2022-08-20T01:54:53.430Z,22.90
2022-08-20T01:57:21.068Z,22.81
2022-08-20T01:59:48.366Z,22.83
2022-08-20T02:02:15.210Z,22.87
2022-08-20T02:04:42.567Z,22.87
2022-08-20T02:07:18.003Z,22.90
2022-08-20T02:09:45.961Z,22.87
2022-08-20T02:12:14.487Z,22.89
2022-08-20T02:14:44.531Z,22.84
2022-08-20T02:17:12.115Z,22.82
2022-08-20T02:19:44.884Z,22.77
2022-08-20T02:22:30.393Z,22.83
2022-08-20T02:24:57.199Z,22.87
2022-08-20T02:27:24.486Z,22.83
2022-08-20T02:29:52.511Z,22.49
2022-08-20T02:32:31.160Z,22.66
2022-08-20T02:35:03.942Z,22.77
2022-08-20T02:37:31.154Z,22.77
2022-08-20T02:39:57.987Z,22.81
2022-08-20T02:42:24.771Z,22.72
2022-08-20T02:44:51.876Z,22.79
2022-08-20T02:47:18.773Z,22.80
2022-08-20T02:49:45.600Z,22.78
2022-08-20T02:52:12.328Z,22.74
2022-08-20T02:54:39.165Z,22.79
2022-08-20T02:57:06.087Z,22.84
2022-08-20T02:59:33.737Z,22.85
2022-08-20T03:02:01.393Z,22.83
2022-08-20T03:04:29.553Z,22.80
2022-08-20T03:06:56.760Z,22.81
2022-08-20T03:09:23.499Z,22.80
2022-08-20T03:11:50.210Z,22.61
2022-08-20T03:14:17.070Z,22.72
2022-08-20T03:16:43.844Z,22.81
2022-08-20T03:19:10.647Z,22.83
2022-08-20T03:21:37.468Z,22.85
2022-08-20T03:24:04.489Z,22.89
2022-08-20T03:26:31.355Z,22.88
2022-08-20T03:28:58.089Z,22.86
2022-08-20T03:31:24.851Z,22.80
2022-08-20T03:33:53.455Z,22.76
2022-08-20T03:36:27.897Z,22.83
2022-08-20T03:38:57.630Z,22.84
2022-08-20T03:41:24.573Z,22.82
2022-08-20T03:43:51.640Z,22.86
2022-08-20T03:46:23.022Z,22.81
2022-08-20T03:48:50.073Z,22.77
2022-08-20T03:51:23.126Z,22.81
2022-08-20T03:53:49.844Z,22.77
2022-08-20T03:56:17.532Z,22.72
2022-08-20T03:58:44.479Z,22.73
2022-08-20T04:01:44.447Z,22.81
2022-08-20T04:03:58.795Z,22.85
2022-08-20T04:06:26.127Z,22.88
2022-08-20T04:08:54.228Z,22.89
2022-08-20T04:11:20.977Z,22.84
2022-08-20T04:13:47.706Z,22.86
2022-08-20T04:16:16.457Z,22.83
2022-08-20T04:19:02.046Z,22.81
2022-08-20T04:21:33.856Z,22.78
2022-08-20T04:24:02.550Z,22.82
2022-08-20T04:26:29.585Z,22.86
2022-08-20T04:28:56.346Z,22.81
2022-08-20T04:31:33.050Z,22.62
2022-08-20T04:34:01.881Z,22.70
2022-08-20T04:36:28.845Z,22.71
2022-08-20T04:38:55.741Z,22.77
2022-08-20T04:41:24.136Z,22.78
2022-08-20T04:43:56.038Z,22.80
2022-08-20T04:46:26.043Z,22.80
2022-08-20T04:48:53.257Z,22.83
2022-08-20T04:51:23.399Z,22.87
2022-08-20T04:53:53.778Z,22.84
2022-08-20T04:56:39.812Z,22.83
2022-08-20T04:59:07.658Z,22.84
2022-08-20T05:01:35.223Z,22.69
2022-08-20T05:04:02.049Z,22.70
2022-08-20T05:06:31.014Z,22.75
2022-08-20T05:08:59.211Z,22.79
2022-08-20T05:11:34.160Z,22.86
2022-08-20T05:14:07.840Z,22.87
2022-08-20T05:16:38.201Z,22.89
2022-08-20T05:19:06.698Z,22.88
2022-08-20T05:21:34.139Z,22.89
2022-08-20T05:24:01.298Z,22.90
2022-08-20T05:26:28.294Z,22.94
2022-08-20T05:28:59.090Z,22.92
2022-08-20T05:31:30.852Z,22.79
2022-08-20T05:34:10.049Z,22.90
2022-08-20T05:36:39.861Z,22.89
2022-08-20T05:39:06.637Z,22.90
2022-08-20T05:41:33.478Z,22.96
2022-08-20T05:44:03.514Z,22.98
2022-08-20T05:46:31.875Z,22.74
2022-08-20T05:49:01.794Z,22.62
2022-08-20T05:51:29.812Z,22.77
2022-08-20T05:53:58.243Z,22.82
2022-08-20T05:56:27.285Z,22.84
2022-08-20T05:58:54.611Z,22.79
2022-08-20T06:01:21.815Z,22.80
2022-08-20T06:04:07.123Z,22.73
2022-08-20T06:06:44.260Z,22.76
2022-08-20T06:09:12.227Z,22.85
2022-08-20T06:11:39.356Z,22.90
2022-08-20T06:14:06.072Z,22.89
2022-08-20T06:16:32.857Z,22.89
2022-08-20T06:19:00.018Z,22.94
2022-08-20T06:21:29.801Z,22.96
2022-08-20T06:23:59.007Z,22.93
2022-08-20T06:26:30.425Z,22.97
2022-08-20T06:28:58.691Z,23.00
2022-08-20T06:31:25.416Z,23.01
2022-08-20T06:33:52.366Z,23.08
2022-08-20T06:36:19.499Z,23.07
2022-08-20T06:38:46.763Z,23.07
2022-08-20T06:41:14.213Z,23.05
2022-08-20T06:43:40.992Z,23.10
2022-08-20T06:46:07.984Z,23.13
2022-08-20T06:48:34.998Z,23.16
2022-08-20T06:51:01.898Z,23.16
2022-08-20T06:53:29.295Z,23.15
2022-08-20T06:55:58.996Z,23.06
2022-08-20T06:58:36.782Z,23.03
2022-08-20T07:01:11.109Z,23.01
2022-08-20T07:03:54.385Z,23.03
2022-08-20T07:06:22.211Z,22.96
2022-08-20T07:08:48.961Z,22.79
2022-08-20T07:11:15.748Z,22.91
2022-08-20T07:13:42.561Z,22.99
2022-08-20T07:16:09.545Z,23.06
2022-08-20T07:18:36.557Z,23.12
2022-08-20T07:21:03.801Z,23.16
2022-08-20T07:23:31.858Z,23.18
2022-08-20T07:25:58.881Z,23.17
2022-08-20T07:28:29.032Z,23.19
2022-08-20T07:31:15.896Z,23.18
2022-08-20T07:33:44.519Z,23.12
2022-08-20T07:36:12.426Z,23.11
2022-08-20T07:38:39.179Z,23.11
2022-08-20T07:41:13.630Z,23.07
2022-08-20T07:43:41.820Z,23.00
2022-08-20T07:46:09.865Z,23.08
2022-08-20T07:48:46.298Z,23.13
2022-08-20T07:51:14.527Z,22.99
2022-08-20T07:53:41.660Z,22.95
2022-08-20T07:56:11.663Z,23.00
2022-08-20T07:58:42.394Z,22.99
2022-08-20T08:01:11.670Z,23.01
2022-08-20T08:03:40.928Z,22.95
2022-08-20T08:06:19.625Z,23.00
2022-08-20T08:08:59.104Z,23.11
2022-08-20T08:11:25.942Z,23.17
2022-08-20T08:13:52.732Z,23.27
2022-08-20T08:16:20.309Z,23.33
2022-08-20T08:18:50.215Z,23.32
2022-08-20T08:21:18.470Z,23.32
2022-08-20T08:23:45.665Z,23.28
2022-08-20T08:26:16.241Z,23.17
2022-08-20T08:28:46.815Z,23.30
2022-08-20T08:31:14.990Z,23.08
2022-08-20T08:33:42.316Z,23.18
2022-08-20T08:36:14.290Z,23.10
2022-08-20T08:38:44.380Z,23.12
2022-08-20T08:41:32.090Z,23.10
2022-08-20T08:44:06.986Z,23.09
2022-08-20T08:46:44.502Z,23.07
2022-08-20T08:49:15.188Z,23.09
2022-08-20T08:51:46.443Z,23.13
2022-08-20T08:54:17.554Z,23.08
2022-08-20T08:56:49.797Z,23.07
2022-08-20T08:59:17.083Z,23.03
2022-08-20T09:01:56.292Z,23.07
2022-08-20T09:04:31.845Z,23.20
2022-08-20T09:06:59.691Z,22.87
2022-08-20T09:09:29.514Z,22.98
2022-08-20T09:12:04.478Z,23.22
2022-08-20T09:14:31.363Z,23.27
2022-08-20T09:16:58.300Z,23.27
2022-08-20T09:19:25.318Z,23.44
2022-08-20T09:21:52.149Z,23.59
2022-08-20T09:24:18.943Z,23.57
2022-08-20T09:26:46.171Z,23.69
2022-08-20T09:29:12.988Z,23.74
2022-08-20T09:31:39.772Z,23.83
2022-08-20T09:34:07.253Z,23.80
2022-08-20T09:36:34.027Z,23.89
2022-08-20T09:39:02.848Z,24.00
2022-08-20T09:41:31.216Z,24.08
2022-08-20T09:44:00.699Z,24.14
2022-08-20T09:46:27.722Z,24.15
2022-08-20T09:48:55.196Z,24.20
2022-08-20T09:51:22.243Z,24.15
2022-08-20T09:53:49.246Z,24.14
2022-08-20T09:56:16.417Z,24.25
2022-08-20T09:58:49.850Z,24.20
2022-08-20T10:01:18.733Z,24.38
2022-08-20T10:03:48.965Z,24.45
2022-08-20T10:06:17.973Z,24.53
2022-08-20T10:08:44.694Z,24.63
2022-08-20T10:11:11.692Z,24.57
2022-08-20T10:13:38.512Z,24.69
2022-08-20T10:16:05.506Z,24.88
2022-08-20T10:18:32.376Z,24.93
2022-08-20T10:20:59.207Z,25.06
2022-08-20T10:23:26.046Z,25.05
2022-08-20T10:25:52.844Z,25.00
2022-08-20T10:28:19.641Z,25.12
2022-08-20T10:30:47.167Z,25.18
2022-08-20T10:33:14.049Z,25.26
2022-08-20T10:35:40.947Z,25.30
2022-08-20T10:38:07.848Z,25.39
2022-08-20T10:40:34.675Z,25.34
2022-08-20T10:43:02.062Z,25.44
2022-08-20T10:45:28.936Z,25.17
2022-08-20T10:47:59.422Z,25.11
2022-08-20T10:50:30.585Z,25.12
2022-08-20T10:52:58.327Z,25.12
2022-08-20T10:55:25.259Z,25.24
2022-08-20T10:57:52.317Z,25.25
2022-08-20T11:00:19.456Z,25.25
2022-08-20T11:02:46.313Z,25.27
2022-08-20T11:05:13.173Z,25.24
2022-08-20T11:07:49.826Z,25.31
2022-08-20T11:10:25.182Z,25.26
2022-08-20T11:12:52.068Z,25.22
2022-08-20T11:15:18.860Z,25.02
2022-08-20T11:17:46.100Z,24.95
2022-08-20T11:20:15.060Z,25.13
2022-08-20T11:22:41.876Z,25.12
2022-08-20T11:25:09.601Z,25.09
2022-08-20T11:27:45.255Z,25.12
2022-08-20T11:30:20.891Z,25.11
2022-08-20T11:32:47.580Z,25.10
2022-08-20T11:35:41.114Z,25.02
2022-08-20T11:38:01.138Z,25.02
2022-08-20T11:40:29.458Z,24.73
2022-08-20T11:43:14.198Z,24.76
2022-08-20T11:45:42.292Z,24.78
2022-08-20T11:48:09.056Z,24.78
2022-08-20T11:50:35.766Z,24.67
2022-08-20T11:53:02.490Z,24.73
2022-08-20T11:55:30.208Z,24.68
2022-08-20T11:58:00.305Z,24.52
2022-08-20T12:00:33.167Z,24.63
2022-08-20T12:03:05.479Z,24.58
2022-08-20T12:05:35.367Z,24.42
2022-08-20T12:08:02.384Z,24.46
2022-08-20T12:10:29.849Z,24.47
2022-08-20T12:12:56.883Z,24.41
2022-08-20T12:15:24.219Z,24.49
2022-08-20T12:17:51.115Z,24.53
2022-08-20T12:20:18.034Z,24.40
2022-08-20T12:22:44.815Z,24.45
2022-08-20T12:25:14.945Z,24.59
2022-08-20T12:27:42.455Z,24.71
2022-08-20T12:30:15.605Z,24.57
2022-08-20T12:32:42.714Z,24.63
2022-08-20T12:35:10.722Z,24.73
2022-08-20T12:37:37.873Z,24.73
2022-08-20T12:40:08.201Z,24.66
2022-08-20T12:42:35.142Z,24.63
2022-08-20T12:45:02.314Z,24.60
2022-08-20T12:47:34.444Z,24.56
2022-08-20T12:50:05.050Z,24.49
2022-08-20T12:52:32.637Z,24.40
2022-08-20T12:54:59.682Z,24.40
2022-08-20T12:57:32.246Z,24.43
2022-08-20T13:00:01.692Z,24.34
2022-08-20T13:02:30.542Z,24.32
2022-08-20T13:05:00.120Z,24.25
2022-08-20T13:07:29.350Z,24.23
2022-08-20T13:09:56.182Z,24.14
2022-08-20T13:12:23.091Z,24.12
2022-08-20T13:14:49.777Z,24.11
2022-08-20T13:17:18.370Z,24.11
2022-08-20T13:19:46.211Z,24.09
2022-08-20T13:22:14.128Z,24.05
2022-08-20T13:24:41.142Z,24.04
2022-08-20T13:27:09.378Z,24.01
2022-08-20T13:29:36.242Z,23.99
2022-08-20T13:32:03.171Z,23.98
2022-08-20T13:34:30.194Z,23.98
2022-08-20T13:36:57.447Z,23.99
2022-08-20T13:39:24.562Z,23.98
2022-08-20T13:41:51.249Z,23.88
2022-08-20T13:44:18.539Z,23.85
2022-08-20T13:46:45.359Z,23.83
2022-08-20T13:49:12.241Z,23.75
2022-08-20T13:51:39.107Z,23.70
2022-08-20T13:54:05.854Z,23.74
2022-08-20T13:56:37.511Z,23.77
2022-08-20T13:59:04.264Z,23.84
2022-08-20T14:01:31.284Z,23.88
2022-08-20T14:03:58.528Z,23.88
2022-08-20T14:06:26.625Z,23.88
2022-08-20T14:08:53.435Z,23.88
2022-08-20T14:11:20.731Z,23.86
2022-08-20T14:13:48.081Z,23.91
2022-08-20T14:16:21.236Z,23.90
2022-08-20T14:18:56.382Z,23.85
2022-08-20T14:21:23.403Z,23.90
2022-08-20T14:23:50.112Z,23.92
2022-08-20T14:26:16.970Z,23.96
2022-08-20T14:28:43.804Z,23.97
2022-08-20T14:31:10.544Z,24.01
2022-08-20T14:33:39.314Z,24.04
2022-08-20T14:36:09.501Z,24.09
2022-08-20T14:38:37.833Z,24.11
2022-08-20T14:41:04.657Z,24.10
2022-08-20T14:43:31.595Z,24.09
2022-08-20T14:45:58.454Z,24.07
2022-08-20T14:48:28.159Z,24.07
2022-08-20T14:50:56.044Z,24.10
2022-08-20T14:53:22.882Z,23.72
2022-08-20T14:55:49.715Z,23.89
2022-08-20T14:58:17.575Z,23.97
2022-08-20T15:00:45.170Z,23.91
2022-08-20T15:03:13.527Z,23.93
2022-08-20T15:05:40.734Z,23.98
2022-08-20T15:08:10.583Z,23.99
2022-08-20T15:10:39.017Z,23.97
2022-08-20T15:13:05.811Z,24.00
2022-08-20T15:15:33.756Z,24.01
2022-08-20T15:18:01.116Z,23.98
2022-08-20T15:20:31.460Z,23.96
2022-08-20T15:22:58.793Z,23.97
2022-08-20T15:25:36.770Z,23.57
2022-08-20T15:28:06.292Z,23.50
2022-08-20T15:30:33.585Z,23.76
2022-08-20T15:33:00.891Z,23.91
2022-08-20T15:35:28.598Z,23.97
2022-08-20T15:37:57.279Z,24.01
2022-08-20T15:40:28.550Z,24.05
2022-08-20T15:42:59.515Z,24.04
2022-08-20T15:45:27.224Z,24.05
2022-08-20T15:47:55.585Z,24.06
2022-08-20T15:50:25.029Z,24.07
2022-08-20T15:52:52.057Z,24.09
2022-08-20T15:55:18.842Z,24.11
2022-08-20T15:58:08.770Z,24.10
2022-08-20T16:00:53.678Z,24.09
2022-08-20T16:04:06.377Z,24.09
2022-08-20T16:06:33.593Z,24.04
2022-08-20T16:09:20.354Z,23.98
2022-08-20T16:12:05.694Z,24.00
2022-08-20T16:14:39.740Z,23.81
2022-08-20T16:17:10.278Z,23.55
2022-08-20T16:19:58.319Z,23.44
2022-08-20T16:22:27.686Z,23.56
2022-08-20T16:24:54.628Z,23.72
2022-08-20T16:27:36.926Z,23.79
2022-08-20T16:30:08.808Z,23.82
2022-08-20T16:32:46.077Z,23.81
2022-08-20T16:35:16.198Z,23.79
2022-08-20T16:37:55.799Z,23.79
2022-08-20T16:40:29.881Z,23.78
2022-08-20T16:42:59.292Z,23.76
2022-08-20T16:45:30.431Z,23.72
2022-08-20T16:48:01.963Z,23.70
2022-08-20T16:50:37.697Z,23.68
2022-08-20T16:53:04.659Z,23.68
2022-08-20T16:55:31.632Z,23.66
2022-08-20T16:57:58.525Z,23.68
2022-08-20T17:00:35.466Z,23.63
2022-08-20T17:03:34.945Z,23.63
2022-08-20T17:06:27.513Z,23.61
2022-08-20T17:08:55.082Z,23.61
2022-08-20T17:11:33.311Z,23.62
2022-08-20T17:14:09.306Z,23.61
2022-08-20T17:16:39.984Z,23.61
2022-08-20T17:19:12.879Z,23.61
2022-08-20T17:21:40.654Z,23.59
2022-08-20T17:24:18.383Z,23.58
2022-08-20T17:26:50.613Z,23.60
2022-08-20T17:29:23.908Z,23.56
2022-08-20T17:31:56.293Z,23.61
2022-08-20T17:34:44.764Z,23.60
2022-08-20T17:37:22.599Z,23.56
2022-08-20T17:39:54.256Z,23.57
2022-08-20T17:42:25.835Z,23.54
2022-08-20T17:45:05.811Z,23.53
2022-08-20T17:47:35.072Z,23.52
2022-08-20T17:50:13.354Z,23.51
2022-08-20T17:52:45.763Z,23.49
2022-08-20T17:55:12.979Z,23.34
2022-08-20T17:57:44.053Z,22.99
2022-08-20T18:00:15.123Z,22.69
2022-08-20T18:02:42.969Z,22.91
2022-08-20T18:05:15.015Z,22.76
2022-08-20T18:07:53.109Z,22.81
2022-08-20T18:10:26.582Z,22.51
2022-08-20T18:13:15.322Z,22.78
2022-08-20T18:15:50.795Z,22.83
2022-08-20T18:18:23.715Z,22.86
2022-08-20T18:21:15.531Z,22.86
2022-08-20T18:24:06.483Z,22.79
2022-08-20T18:26:42.253Z,22.80
2022-08-20T18:29:11.878Z,22.76
2022-08-20T18:31:49.835Z,22.74
2022-08-20T18:34:20.100Z,22.76
2022-08-20T18:36:58.395Z,22.73
2022-08-20T18:39:31.004Z,22.72
2022-08-20T18:42:04.051Z,22.68
2022-08-20T18:44:44.411Z,22.63
2022-08-20T18:47:33.227Z,22.60
2022-08-20T18:50:16.867Z,22.58
2022-08-20T18:53:05.945Z,22.55
2022-08-20T18:55:40.842Z,22.53
2022-08-20T18:58:13.333Z,22.52
2022-08-20T19:00:48.728Z,22.48
2022-08-20T19:03:23.612Z,22.42
2022-08-20T19:06:25.010Z,22.39
2022-08-20T19:09:15.103Z,22.37
2022-08-20T19:12:19.720Z,22.33
2022-08-20T19:15:07.052Z,22.29
2022-08-20T19:17:51.919Z,22.30
2022-08-20T19:20:25.994Z,22.29
2022-08-20T19:22:54.589Z,22.29
2022-08-20T19:25:30.688Z,22.24
2022-08-20T19:28:20.257Z,22.22
2022-08-20T19:30:47.055Z,22.18
2022-08-20T19:33:32.734Z,22.16
2022-08-20T19:36:27.596Z,22.16
2022-08-20T19:38:57.513Z,22.14
2022-08-20T19:41:38.912Z,22.13
2022-08-20T19:44:05.667Z,22.10
2022-08-20T19:46:43.113Z,22.10
2022-08-20T19:49:35.768Z,22.10
2022-08-20T19:52:41.971Z,22.12
2022-08-20T19:55:24.293Z,22.15
2022-08-20T19:57:56.945Z,22.15
2022-08-20T20:00:26.068Z,22.14
2022-08-20T20:02:52.836Z,22.11
2022-08-20T20:05:19.501Z,22.07
2022-08-20T20:07:49.205Z,22.07
2022-08-20T20:10:32.322Z,22.05
2022-08-20T20:13:07.824Z,21.99
2022-08-20T20:15:34.774Z,22.07
2022-08-20T20:18:01.785Z,22.05
2022-08-20T20:20:31.293Z,22.05
2022-08-20T20:23:05.863Z,22.06
2022-08-20T20:25:34.176Z,22.07
2022-08-20T20:28:31.541Z,22.05
2022-08-20T20:31:12.466Z,22.02
2022-08-20T20:33:44.101Z,22.02
2022-08-20T20:36:18.878Z,22.04
2022-08-20T20:39:05.692Z,22.03
2022-08-20T20:41:33.342Z,22.07
2022-08-20T20:44:07.890Z,22.09
2022-08-20T20:46:35.531Z,22.10
2022-08-20T20:49:19.199Z,22.07
2022-08-20T20:51:54.593Z,22.07
2022-08-20T20:54:26.178Z,22.06
2022-08-20T20:56:59.790Z,22.07
2022-08-20T20:59:27.219Z,22.05
2022-08-20T21:01:53.960Z,22.05
2022-08-20T21:04:22.458Z,22.07
2022-08-20T21:06:50.179Z,22.05
2022-08-20T21:09:17.499Z,22.05
2022-08-20T21:11:44.507Z,22.01
2022-08-20T21:14:11.345Z,22.04
2022-08-20T21:16:38.041Z,22.03
2022-08-20T21:19:06.787Z,22.02
2022-08-20T21:21:33.923Z,22.02
2022-08-20T21:24:00.766Z,22.03
2022-08-20T21:26:27.976Z,22.04
2022-08-20T21:28:54.884Z,22.04
2022-08-20T21:31:21.913Z,22.01
2022-08-20T21:33:48.620Z,22.04
2022-08-20T21:36:15.563Z,22.01
2022-08-20T21:38:42.316Z,22.01
2022-08-20T21:41:09.158Z,21.99
2022-08-20T21:43:35.859Z,21.98
2022-08-20T21:46:04.247Z,21.97
2022-08-20T21:48:32.355Z,21.96
2022-08-20T21:50:59.153Z,21.99
2022-08-20T21:53:25.964Z,21.95
2022-08-20T21:55:53.006Z,21.95
2022-08-20T21:58:20.768Z,21.98
2022-08-20T22:00:56.884Z,22.00
2022-08-20T22:03:26.339Z,21.97
2022-08-20T22:05:54.339Z,21.99
2022-08-20T22:08:22.061Z,21.99
2022-08-20T22:10:54.262Z,22.00
2022-08-20T22:13:22.239Z,21.99
2022-08-20T22:15:49.065Z,21.99
2022-08-20T22:18:16.976Z,22.00
2022-08-20T22:20:44.439Z,21.97
2022-08-20T22:23:12.138Z,21.97
2022-08-20T22:25:39.155Z,21.98
2022-08-20T22:28:05.911Z,21.96
2022-08-20T22:30:33.235Z,21.95
2022-08-20T22:33:15.117Z,21.93
2022-08-20T22:35:45.758Z,21.97
2022-08-20T22:38:12.715Z,21.97
2022-08-20T22:40:39.446Z,21.96
2022-08-20T22:43:06.269Z,21.97
2022-08-20T22:45:33.153Z,21.97
2022-08-20T22:48:00.122Z,21.96
2022-08-20T22:50:26.842Z,21.98
2022-08-20T22:52:53.924Z,21.95
2022-08-20T22:55:21.175Z,21.96
2022-08-20T22:57:47.957Z,21.99
2022-08-20T23:00:17.142Z,21.99
2022-08-20T23:02:45.230Z,22.01
2022-08-20T23:05:14.143Z,21.99
2022-08-20T23:07:41.340Z,22.00
2022-08-20T23:10:08.805Z,22.01
2022-08-20T23:12:36.122Z,22.00
2022-08-20T23:15:03.207Z,21.98
2022-08-20T23:17:29.922Z,22.00
2022-08-20T23:19:56.682Z,22.03
2022-08-20T23:22:23.578Z,22.04
2022-08-20T23:24:50.421Z,22.07
2022-08-20T23:27:20.462Z,22.02
2022-08-20T23:29:47.823Z,22.04
2022-08-20T23:32:14.536Z,22.04
2022-08-20T23:34:41.600Z,22.02
2022-08-20T23:37:09.233Z,22.01
2022-08-20T23:39:36.082Z,21.98
2022-08-20T23:42:04.020Z,21.96
2022-08-20T23:44:30.765Z,21.95
2022-08-20T23:46:59.765Z,21.91
2022-08-20T23:49:27.453Z,21.91
2022-08-20T23:51:54.223Z,21.78
2022-08-20T23:54:21.139Z,21.81
2022-08-20T23:56:47.883Z,21.80
2022-08-20T23:59:14.589Z,21.81
